Time,TemperatureF,DewpointF,PressureIn,WindDirection,WindDirectionDegrees,WindSpeedMPH,WindSpeedGustMPH,Humidity,HourlyPrecipIn,Conditions,Clouds,dailyrainin,SolarRadiationWatts/m^2,SoftwareType,DateUTC
2013-02-13 00:03:00,69.9,68.0,29.95,SW,232,6.0,11.0,92,0.00,,,0.00,0,weatherlink.com 1.10,2013-02-13 05:03:00,
2013-02-13 00:18:00,69.8,67.0,29.94,SW,230,4.0,13.0,92,0.00,,,0.00,0,weatherlink.com 1.10,2013-02-13 05:18:00,
2013-02-13 00:33:00,69.8,67.0,29.94,SSW,201,7.0,17.0,92,0.00,,,0.00,0,weatherlink.com 1.10,2013-02-13 05:33:00,
2013-02-13 00:48:00,69.8,67.0,29.93,SSW,209,4.0,11.0,92,0.00,,,0.00,0,weatherlink.com 1.10,2013-02-13 05:48:00,
2013-02-13 01:03:00,69.7,68.0,29.93,South,188,5.0,10.0,93,0.00,,,0.00,0,weatherlink.com 1.10,2013-02-13 06:03:00,
2013-02-13 01:18:00,69.7,68.0,29.93,SW,214,10.0,12.0,93,0.00,,,0.00,0,weatherlink.com 1.10,2013-02-13 06:18:00,
2013-02-13 01:33:00,69.7,68.0,29.93,SW,217,4.0,10.0,93,0.00,,,0.00,0,weatherlink.com 1.10,2013-02-13 06:33:00,
2013-02-13 01:48:00,69.8,68.0,29.93,WSW,238,6.0,12.0,93,0.00,,,0.00,0,weatherlink.com 1.10,2013-02-13 06:48:00,
2013-02-13 02:03:00,69.9,68.0,29.92,SW,232,6.0,14.0,93,0.00,,,0.00,0,weatherlink.com 1.10,2013-02-13 07:03:00,
2013-02-13 02:18:00,70.0,68.0,29.92,SSW,198,11.0,11.0,93,0.00,,,0.00,0,weatherlink.com 1.10,2013-02-13 07:18:00,
2013-02-13 02:33:00,69.9,68.0,29.92,SSW,210,3.0,11.0,93,0.00,,,0.00,0,weatherlink.com 1.10,2013-02-13 07:33:00,
2013-02-13 02:48:00,69.8,68.0,29.91,South,190,3.0,9.0,93,0.00,,,0.00,0,weatherlink.com 1.10,2013-02-13 07:48:00,
2013-02-13 03:03:00,69.9,68.0,29.91,South,174,3.0,13.0,93,0.00,,,0.00,0,weatherlink.com 1.10,2013-02-13 08:03:00,
2013-02-13 03:18:00,70.0,68.0,29.91,SSW,197,6.0,12.0,93,0.00,,,0.00,0,weatherlink.com 1.10,2013-02-13 08:18:00,
2013-02-13 03:33:00,70.0,68.0,29.91,SSW,196,3.0,12.0,93,0.00,,,0.00,0,weatherlink.com 1.10,2013-02-13 08:33:00,
2013-02-13 03:48:00,70.0,68.0,29.91,South,184,3.0,10.0,93,0.00,,,0.00,0,weatherlink.com 1.10,2013-02-13 08:48:00,
2013-02-13 04:03:00,70.0,68.0,29.90,SSW,211,3.0,10.0,93,0.00,,,0.00,0,weatherlink.com 1.10,2013-02-13 09:03:00,
2013-02-13 04:18:00,70.0,68.0,29.90,SSW,203,2.0,10.0,94,0.00,,,0.00,0,weatherlink.com 1.10,2013-02-13 09:18:00,
2013-02-13 04:33:00,70.0,68.0,29.90,SSW,199,11.0,14.0,94,0.00,,,0.00,0,weatherlink.com 1.10,2013-02-13 09:33:00,
2013-02-13 04:48:00,70.1,68.0,29.89,SW,225,8.0,11.0,94,0.00,,,0.00,0,weatherlink.com 1.10,2013-02-13 09:48:00,
2013-02-13 05:03:00,70.1,68.0,29.90,SSW,213,3.0,11.0,93,0.00,,,0.00,0,weatherlink.com 1.10,2013-02-13 10:03:00,
2013-02-13 05:18:00,70.2,68.0,29.90,SW,234,4.0,10.0,93,0.00,,,0.00,0,weatherlink.com 1.10,2013-02-13 10:18:00,
2013-02-13 05:33:00,70.1,68.0,29.91,SSE,163,4.0,11.0,93,0.00,,,0.00,0,weatherlink.com 1.10,2013-02-13 10:33:00,
2013-02-13 05:48:00,70.2,68.0,29.91,SSW,210,3.0,10.0,93,0.00,,,0.00,0,weatherlink.com 1.10,2013-02-13 10:48:00,
2013-02-13 06:03:00,70.2,68.0,29.91,SSW,197,7.0,14.0,93,0.00,,,0.00,0,weatherlink.com 1.10,2013-02-13 11:03:00,
2013-02-13 06:18:00,70.3,68.0,29.91,SW,215,4.0,12.0,92,0.00,,,0.00,0,weatherlink.com 1.10,2013-02-13 11:18:00,
2013-02-13 06:33:00,70.2,68.0,29.91,SSW,207,5.0,13.0,93,0.00,,,0.00,0,weatherlink.com 1.10,2013-02-13 11:33:00,
2013-02-13 06:48:00,70.1,68.0,29.91,SSW,199,8.0,11.0,93,0.00,,,0.00,0,weatherlink.com 1.10,2013-02-13 11:48:00,
2013-02-13 07:03:00,70.0,68.0,29.91,WSW,238,4.0,12.0,93,0.00,,,0.00,0,weatherlink.com 1.10,2013-02-13 12:03:00,
2013-02-13 07:18:00,69.9,68.0,29.91,SSW,206,3.0,16.0,93,0.00,,,0.00,0,weatherlink.com 1.10,2013-02-13 12:18:00,
2013-02-13 07:33:00,70.0,68.0,29.92,SSW,211,10.0,13.0,93,0.00,,,0.00,14,weatherlink.com 1.10,2013-02-13 12:33:00,
2013-02-13 07:48:00,70.3,68.0,29.92,SW,216,7.0,13.0,93,0.00,,,0.00,30,weatherlink.com 1.10,2013-02-13 12:48:00,
2013-02-13 08:03:00,70.4,68.0,29.92,SSW,194,7.0,14.0,92,0.00,,,0.00,116,weatherlink.com 1.10,2013-02-13 13:03:00,
2013-02-13 08:18:00,70.3,68.0,29.93,SSW,209,4.0,16.0,91,0.00,,,0.00,105,weatherlink.com 1.10,2013-02-13 13:18:00,
2013-02-13 08:33:00,70.5,68.0,29.93,SSW,198,7.0,10.0,91,0.00,,,0.00,244,weatherlink.com 1.10,2013-02-13 13:33:00,
2013-02-13 08:49:00,70.8,68.0,29.93,South,182,6.0,15.0,91,0.00,,,0.00,116,weatherlink.com 1.10,2013-02-13 13:49:00,
2013-02-13 09:04:00,71.3,68.0,29.93,SSE,168,5.0,15.0,90,0.00,,,0.00,81,weatherlink.com 1.10,2013-02-13 14:04:00,
2013-02-13 09:19:00,71.6,69.0,29.94,SSW,205,2.0,16.0,90,0.00,,,0.00,114,weatherlink.com 1.10,2013-02-13 14:19:00,
2013-02-13 09:34:00,72.0,69.0,29.94,WSW,247,8.0,16.0,89,0.00,,,0.00,213,weatherlink.com 1.10,2013-02-13 14:34:00,
2013-02-13 09:49:00,73.2,69.0,29.94,WSW,247,5.0,16.0,87,0.00,,,0.00,299,weatherlink.com 1.10,2013-02-13 14:49:00,
2013-02-13 10:04:00,74.1,69.0,29.93,SSW,211,14.0,18.0,85,0.00,,,0.00,255,weatherlink.com 1.10,2013-02-13 15:04:00,
2013-02-13 10:19:00,74.9,69.0,29.93,SSW,205,10.0,23.0,83,0.00,,,0.00,413,weatherlink.com 1.10,2013-02-13 15:19:00,
2013-02-13 10:34:00,76.0,69.0,29.93,SW,222,11.0,24.0,80,0.00,,,0.00,469,weatherlink.com 1.10,2013-02-13 15:34:00,
2013-02-13 10:49:00,77.2,70.0,29.93,SSW,203,12.0,19.0,77,0.00,,,0.00,737,weatherlink.com 1.10,2013-02-13 15:49:00,
2013-02-13 11:04:00,78.3,69.0,29.93,SW,224,10.0,16.0,74,0.00,,,0.00,297,weatherlink.com 1.10,2013-02-13 16:04:00,
2013-02-13 11:19:00,79.0,69.0,29.92,SW,225,13.0,19.0,72,0.00,,,0.00,211,weatherlink.com 1.10,2013-02-13 16:19:00,
2013-02-13 11:34:00,79.1,69.0,29.91,SW,219,7.0,15.0,71,0.00,,,0.00,587,weatherlink.com 1.10,2013-02-13 16:34:00,
2013-02-13 11:49:00,79.2,69.0,29.89,SW,226,11.0,19.0,70,0.00,,,0.00,371,weatherlink.com 1.10,2013-02-13 16:49:00,
2013-02-13 12:04:00,79.8,68.0,29.89,SSW,201,8.0,19.0,68,0.00,,,0.00,408,weatherlink.com 1.10,2013-02-13 17:04:00,
2013-02-13 12:19:00,80.4,68.0,29.88,SW,217,7.0,15.0,67,0.00,,,0.00,371,weatherlink.com 1.10,2013-02-13 17:19:00,
2013-02-13 12:34:00,80.3,69.0,29.88,SW,224,12.0,17.0,68,0.00,,,0.00,292,weatherlink.com 1.10,2013-02-13 17:34:00,
2013-02-13 12:49:00,81.1,69.0,29.86,South,190,9.0,16.0,66,0.00,,,0.00,397,weatherlink.com 1.10,2013-02-13 17:49:00,
2013-02-13 13:04:00,80.9,68.0,29.86,SW,218,11.0,19.0,65,0.00,,,0.00,167,weatherlink.com 1.10,2013-02-13 18:04:00,
2013-02-13 13:19:00,80.7,68.0,29.87,WNW,284,6.0,17.0,65,0.00,,,0.00,26,weatherlink.com 1.10,2013-02-13 18:19:00,
2013-02-13 13:34:00,77.2,68.0,29.87,WSW,240,3.0,9.0,74,0.00,,,0.00,42,weatherlink.com 1.10,2013-02-13 18:34:00,
2013-02-13 13:49:00,73.5,68.0,29.85,WSW,252,3.0,12.0,83,0.01,,,0.01,91,weatherlink.com 1.10,2013-02-13 18:49:00,
2013-02-13 14:04:00,73.1,67.0,29.85,West,261,5.0,8.0,81,0.01,,,0.01,162,weatherlink.com 1.10,2013-02-13 19:04:00,
2013-02-13 14:19:00,73.6,67.0,29.85,West,266,2.0,11.0,80,0.01,,,0.01,160,weatherlink.com 1.10,2013-02-13 19:19:00,
2013-02-13 14:34:00,74.0,68.0,29.84,West,274,2.0,9.0,81,0.01,,,0.01,250,weatherlink.com 1.10,2013-02-13 19:34:00,
2013-02-13 14:49:00,74.2,68.0,29.84,WNW,292,1.0,8.0,80,0.00,,,0.01,141,weatherlink.com 1.10,2013-02-13 19:49:00,
2013-02-13 15:04:00,73.1,68.0,29.84,West,274,1.0,16.0,84,0.00,,,0.01,54,weatherlink.com 1.10,2013-02-13 20:04:00,
2013-02-13 15:19:00,70.2,68.0,29.84,SSW,211,3.0,16.0,92,0.19,,,0.20,86,weatherlink.com 1.10,2013-02-13 20:19:00,
2013-02-13 15:35:00,69.7,68.0,29.84,NW,304,1.0,6.0,95,0.19,,,0.20,86,weatherlink.com 1.10,2013-02-13 20:35:00,
2013-02-13 15:50:00,69.8,69.0,29.84,SW,227,0.0,7.0,96,0.19,,,0.20,125,weatherlink.com 1.10,2013-02-13 20:50:00,
2013-02-13 16:05:00,70.4,70.0,29.84,WSW,249,2.0,5.0,97,0.19,,,0.20,100,weatherlink.com 1.10,2013-02-13 21:05:00,
2013-02-13 16:20:00,70.3,69.0,29.85,SW,219,0.0,4.0,96,0.00,,,0.20,28,weatherlink.com 1.10,2013-02-13 21:20:00,
2013-02-13 16:35:00,70.2,69.0,29.85,WNW,294,1.0,5.0,96,0.00,,,0.20,21,weatherlink.com 1.10,2013-02-13 21:35:00,
2013-02-13 16:50:00,70.1,69.0,29.86,West,273,0.0,3.0,96,0.00,,,0.20,25,weatherlink.com 1.10,2013-02-13 21:50:00,
2013-02-13 17:05:00,70.0,69.0,29.86,North,353,1.0,6.0,96,0.00,,,0.20,7,weatherlink.com 1.10,2013-02-13 22:05:00,
2013-02-13 17:20:00,69.9,69.0,29.86,SW,223,1.0,4.0,96,0.01,,,0.21,28,weatherlink.com 1.10,2013-02-13 22:20:00,
2013-02-13 17:35:00,69.8,69.0,29.86,WNW,300,0.0,2.0,96,0.01,,,0.21,9,weatherlink.com 1.10,2013-02-13 22:35:00,
2013-02-13 17:50:00,69.8,69.0,29.87,NW,315,0.0,3.0,97,0.02,,,0.22,0,weatherlink.com 1.10,2013-02-13 22:50:00,
2013-02-13 18:05:00,68.0,65.0,29.88,NNW,333,6.0,16.0,89,0.02,,,0.22,0,weatherlink.com 1.10,2013-02-13 23:05:00,
2013-02-13 18:20:00,66.0,64.0,29.88,WNW,293,4.0,14.0,92,0.01,,,0.22,0,weatherlink.com 1.10,2013-02-13 23:20:00,
2013-02-13 18:35:00,65.6,64.0,29.88,NNW,328,2.0,9.0,93,0.01,,,0.22,0,weatherlink.com 1.10,2013-02-13 23:35:00,
2013-02-13 18:50:00,65.7,64.0,29.89,NNW,330,2.0,9.0,93,0.00,,,0.22,0,weatherlink.com 1.10,2013-02-13 23:50:00,
2013-02-13 19:05:00,65.7,63.0,29.88,NW,321,0.0,5.0,92,0.00,,,0.22,0,weatherlink.com 1.10,2013-02-14 00:05:00,
2013-02-13 19:20:00,65.6,63.0,29.89,NW,320,0.0,3.0,92,0.00,,,0.22,0,weatherlink.com 1.10,2013-02-14 00:20:00,
2013-02-13 19:35:00,65.9,64.0,29.90,NW,318,0.0,2.0,94,0.00,,,0.22,0,weatherlink.com 1.10,2013-02-14 00:35:00,
2013-02-13 19:50:00,65.9,64.0,29.90,NW,318,0.0,0.0,94,0.00,,,0.22,0,weatherlink.com 1.10,2013-02-14 00:50:00,
2013-02-13 20:05:00,65.8,64.0,29.91,NW,318,1.0,1.0,94,0.00,,,0.22,0,weatherlink.com 1.10,2013-02-14 01:05:00,
2013-02-13 20:20:00,65.8,64.0,29.94,SW,220,1.0,7.0,94,0.00,,,0.22,0,weatherlink.com 1.10,2013-02-14 01:20:00,
2013-02-13 20:35:00,64.0,61.0,29.94,WNW,301,0.0,7.0,89,0.04,,,0.26,0,weatherlink.com 1.10,2013-02-14 01:35:00,
2013-02-13 20:50:00,62.7,60.0,29.95,SW,224,0.0,1.0,92,0.09,,,0.31,0,weatherlink.com 1.10,2013-02-14 01:50:00,
2013-02-13 21:05:00,62.2,61.0,29.96,SW,224,2.0,2.0,95,0.11,,,0.33,0,weatherlink.com 1.10,2013-02-14 02:05:00,
2013-02-13 21:20:00,61.8,60.0,29.95,SW,220,0.0,2.0,95,0.11,,,0.33,0,weatherlink.com 1.10,2013-02-14 02:20:00,
2013-02-13 21:35:00,62.0,61.0,29.96,West,276,0.0,2.0,96,0.06,,,0.33,0,weatherlink.com 1.10,2013-02-14 02:35:00,
2013-02-13 21:50:00,62.2,61.0,29.96,West,276,0.0,0.0,95,0.02,,,0.33,0,weatherlink.com 1.10,2013-02-14 02:50:00,
2013-02-13 22:05:00,62.4,61.0,29.96,West,276,0.0,0.0,96,0.00,,,0.33,0,weatherlink.com 1.10,2013-02-14 03:05:00,
2013-02-13 22:20:00,62.4,61.0,29.96,West,276,0.0,0.0,96,0.00,,,0.33,0,weatherlink.com 1.10,2013-02-14 03:20:00,
2013-02-13 22:35:00,62.4,61.0,29.97,West,276,0.0,1.0,96,0.01,,,0.34,0,weatherlink.com 1.10,2013-02-14 03:35:00,
2013-02-13 22:50:00,62.6,62.0,29.96,West,276,0.0,0.0,97,0.01,,,0.34,0,weatherlink.com 1.10,2013-02-14 03:50:00,
2013-02-13 23:05:00,62.7,62.0,29.96,West,276,0.0,0.0,97,0.01,,,0.34,0,weatherlink.com 1.10,2013-02-14 04:05:00,
2013-02-13 23:20:00,62.7,62.0,29.97,West,276,1.0,1.0,97,0.00,,,0.34,0,weatherlink.com 1.10,2013-02-14 04:20:00,